createdAt,value
2019-05-23T00:00:26.585Z,11.98
2019-05-23T00:01:26.577Z,11.96
2019-05-23T00:02:26.577Z,11.88
2019-05-23T00:03:26.555Z,11.86
2019-05-23T00:04:26.568Z,11.78
2019-05-23T00:05:26.535Z,11.80
2019-05-23T00:06:26.626Z,11.82
2019-05-23T00:07:26.503Z,11.79
2019-05-23T00:08:26.504Z,11.79
2019-05-23T00:09:26.488Z,11.80
2019-05-23T00:10:26.521Z,11.78
2019-05-23T00:11:26.466Z,11.76
2019-05-23T00:12:26.451Z,11.76
2019-05-23T00:13:26.441Z,11.72
2019-05-23T00:14:26.435Z,11.78
2019-05-23T00:15:26.417Z,11.73
2019-05-23T00:16:26.433Z,11.75
2019-05-23T00:17:26.393Z,11.67
2019-05-23T00:18:26.384Z,11.72
2019-05-23T00:19:26.375Z,11.67
2019-05-23T00:20:26.363Z,11.67
2019-05-23T00:21:26.357Z,11.65
2019-05-23T00:22:26.539Z,11.65
2019-05-23T00:23:26.327Z,11.67
2019-05-23T00:24:26.329Z,11.64
2019-05-23T00:25:26.305Z,11.62
2019-05-23T00:26:26.296Z,11.64
2019-05-23T00:27:26.279Z,11.58
2019-05-23T00:28:26.268Z,11.72
2019-05-23T00:29:26.263Z,11.64
2019-05-23T00:30:26.265Z,11.61
2019-05-23T00:31:26.238Z,11.61
2019-05-23T00:32:26.220Z,11.58
2019-05-23T00:33:26.207Z,11.57
2019-05-23T00:34:26.263Z,11.58
2019-05-23T00:35:26.190Z,11.55
2019-05-23T00:36:26.202Z,11.62
2019-05-23T00:37:26.170Z,11.62
2019-05-23T00:38:26.156Z,11.60
2019-05-23T00:39:26.149Z,11.55
2019-05-23T00:40:26.131Z,11.57
2019-05-23T00:41:26.127Z,11.55
2019-05-23T00:42:26.132Z,11.52
2019-05-23T00:43:26.102Z,11.55
2019-05-23T00:44:26.086Z,11.60
2019-05-23T00:45:26.116Z,11.51
2019-05-23T00:46:26.087Z,11.57
2019-05-23T00:47:26.060Z,11.46
2019-05-23T00:48:26.044Z,11.61
2019-05-23T00:49:26.076Z,11.58
2019-05-23T00:50:26.023Z,11.52
2019-05-23T00:51:26.011Z,11.47
2019-05-23T00:52:25.993Z,11.47
2019-05-23T00:53:25.989Z,11.44
2019-05-23T00:54:25.982Z,11.47
2019-05-23T00:55:25.982Z,11.43
2019-05-23T00:56:25.948Z,11.51
2019-05-23T00:57:25.942Z,11.43
2019-05-23T00:58:25.942Z,11.44
2019-05-23T00:59:27.746Z,11.47
2019-05-23T01:00:25.924Z,11.46
2019-05-23T01:01:25.894Z,11.44
2019-05-23T01:02:25.885Z,11.46
2019-05-23T01:03:25.866Z,11.44
2019-05-23T01:04:25.856Z,11.42
2019-05-23T01:05:25.852Z,11.52
2019-05-23T01:06:25.860Z,11.49
2019-05-23T01:07:25.828Z,11.46
2019-05-23T01:08:25.810Z,11.39
2019-05-23T01:09:25.795Z,11.35
2019-05-23T01:10:25.792Z,11.39
2019-05-23T01:11:25.784Z,11.29
2019-05-23T01:12:25.838Z,11.36
2019-05-23T01:13:25.769Z,11.37
2019-05-23T01:14:25.749Z,11.32
2019-05-23T01:15:25.730Z,11.36
2019-05-23T01:16:25.718Z,11.29
2019-05-23T01:17:25.714Z,11.24
2019-05-23T01:18:25.704Z,11.27
2019-05-23T01:19:25.720Z,11.24
2019-05-23T01:20:25.681Z,11.18
2019-05-23T01:21:25.670Z,11.21
2019-05-23T01:22:25.654Z,11.24
2019-05-23T01:23:25.652Z,11.24
2019-05-23T01:24:25.628Z,11.19
2019-05-23T01:25:25.640Z,11.24
2019-05-23T01:26:25.607Z,11.27
2019-05-23T01:27:25.596Z,11.10
2019-05-23T01:28:25.588Z,11.14
2019-05-23T01:29:25.594Z,11.14
2019-05-23T01:30:25.566Z,11.07
2019-05-23T01:31:25.575Z,11.10
2019-05-23T01:32:25.542Z,11.17
2019-05-23T01:33:25.529Z,11.14
2019-05-23T01:34:25.529Z,11.18
2019-05-23T01:35:25.501Z,11.10
2019-05-23T01:36:25.497Z,11.14
2019-05-23T01:37:25.494Z,11.14
2019-05-23T01:38:25.497Z,11.14
2019-05-23T01:39:25.631Z,11.11
2019-05-23T01:40:25.457Z,11.09
2019-05-23T01:41:25.441Z,11.07
2019-05-23T01:42:25.433Z,11.00
2019-05-23T01:43:25.419Z,11.02
2019-05-23T01:44:25.405Z,11.06
2019-05-23T01:45:25.419Z,11.04
2019-05-23T01:46:25.383Z,11.00
2019-05-23T01:47:25.379Z,10.92
2019-05-23T01:48:25.369Z,10.88
2019-05-23T01:49:25.351Z,10.94
2019-05-23T01:50:25.350Z,10.85
2019-05-23T01:51:25.331Z,10.81
2019-05-23T01:52:25.366Z,10.76
2019-05-23T01:53:25.305Z,10.78
2019-05-23T01:54:25.297Z,10.78
2019-05-23T01:55:25.291Z,10.71
2019-05-23T01:56:25.277Z,10.68
2019-05-23T01:57:25.270Z,10.74
2019-05-23T01:58:25.249Z,10.76
2019-05-23T01:59:25.263Z,10.67
2019-05-23T02:00:25.229Z,10.67
2019-05-23T02:01:25.225Z,10.71
2019-05-23T02:02:25.221Z,10.73
2019-05-23T02:03:25.204Z,10.53
2019-05-23T02:04:25.212Z,10.66
2019-05-23T02:05:25.206Z,10.52
2019-05-23T02:06:25.186Z,10.51
2019-05-23T02:07:25.148Z,10.59
2019-05-23T02:08:25.142Z,10.53
2019-05-23T02:09:25.131Z,10.59
2019-05-23T02:10:25.119Z,10.42
2019-05-23T02:11:25.107Z,10.53
2019-05-23T02:12:25.117Z,10.42
2019-05-23T02:13:25.089Z,10.41
2019-05-23T02:14:25.132Z,10.44
2019-05-23T02:15:25.068Z,10.40
2019-05-23T02:16:25.055Z,10.30
2019-05-23T02:17:25.048Z,10.23
2019-05-23T02:18:25.032Z,10.26
2019-05-23T02:19:25.020Z,10.26
2019-05-23T02:20:25.051Z,10.26
2019-05-23T02:21:24.994Z,10.26
2019-05-23T02:22:24.989Z,10.36
2019-05-23T02:23:24.975Z,10.26
2019-05-23T02:24:24.962Z,10.32
2019-05-23T02:25:24.954Z,10.20
2019-05-23T02:26:24.952Z,10.25
2019-05-23T02:27:24.935Z,10.26
2019-05-23T02:28:24.926Z,10.20
2019-05-23T02:29:24.906Z,10.20
2019-05-23T02:30:34.747Z,10.29
2019-05-23T02:31:25.906Z,10.22
2019-05-23T02:32:24.882Z,10.23
2019-05-23T02:33:24.870Z,10.22
2019-05-23T02:34:24.878Z,10.20
2019-05-23T02:35:24.862Z,10.26
2019-05-23T02:36:24.834Z,10.25
2019-05-23T02:37:24.832Z,10.17
2019-05-23T02:38:24.828Z,10.27
2019-05-23T02:39:24.802Z,10.20
2019-05-23T02:40:24.808Z,10.20
2019-05-23T02:41:24.786Z,10.26
2019-05-23T02:42:24.770Z,10.23
2019-05-23T02:43:24.759Z,10.18
2019-05-23T02:44:24.768Z,10.23
2019-05-23T02:45:24.735Z,10.22
2019-05-23T02:46:24.743Z,10.22
2019-05-23T02:47:24.722Z,10.29
2019-05-23T02:48:24.696Z,10.27
2019-05-23T02:49:24.695Z,10.27
2019-05-23T02:50:24.678Z,10.23
2019-05-23T02:51:24.669Z,10.20
2019-05-23T02:52:24.676Z,10.29
2019-05-23T02:53:24.643Z,10.25
2019-05-23T02:54:24.636Z,10.26
2019-05-23T02:55:24.633Z,10.25
2019-05-23T02:56:24.614Z,10.18
2019-05-23T02:57:24.602Z,10.20
2019-05-23T02:58:24.612Z,10.20
2019-05-23T02:59:24.585Z,10.17
2019-05-23T03:00:24.570Z,10.14
2019-05-23T03:01:24.564Z,10.17
2019-05-23T03:02:24.549Z,10.18
2019-05-23T03:03:24.535Z,10.12
2019-05-23T03:04:24.548Z,10.12
2019-05-23T03:05:24.555Z,10.18
2019-05-23T03:06:24.499Z,10.07
2019-05-23T03:07:24.498Z,10.07
2019-05-23T03:08:24.482Z,10.05
2019-05-23T03:09:24.468Z,10.05
2019-05-23T03:10:24.454Z,10.05
2019-05-23T03:11:24.469Z,10.07
2019-05-23T03:12:25.417Z,9.91
2019-05-23T03:13:24.433Z,9.89
2019-05-23T03:14:24.413Z,9.94
2019-05-23T03:15:24.426Z,9.97
2019-05-23T03:16:24.389Z,9.86
2019-05-23T03:17:24.377Z,9.86
2019-05-23T03:18:24.382Z,9.76
2019-05-23T03:19:24.372Z,9.78
2019-05-23T03:20:24.347Z,9.83
2019-05-23T03:21:24.351Z,9.83
2019-05-23T03:22:24.352Z,9.76
2019-05-23T03:23:24.317Z,9.76
2019-05-23T03:24:24.309Z,9.74
2019-05-23T03:25:24.291Z,9.83
2019-05-23T03:26:24.279Z,9.76
2019-05-23T03:27:24.275Z,9.74
2019-05-23T03:28:24.279Z,9.74
2019-05-23T03:29:24.263Z,9.68
2019-05-23T03:30:24.254Z,9.68
2019-05-23T03:31:30.749Z,9.74
2019-05-23T03:32:25.230Z,9.60
2019-05-23T03:33:24.223Z,9.60
2019-05-23T03:34:24.201Z,9.61
2019-05-23T03:35:24.210Z,9.75
2019-05-23T03:36:24.334Z,9.65
2019-05-23T03:37:24.160Z,9.64
2019-05-23T03:38:24.146Z,9.68
2019-05-23T03:39:24.137Z,9.60
2019-05-23T03:40:24.322Z,9.60
2019-05-23T03:41:24.141Z,9.60
2019-05-23T03:42:24.120Z,9.64
2019-05-23T03:43:24.189Z,9.71
2019-05-23T03:44:24.084Z,9.57
2019-05-23T03:45:24.074Z,9.58
2019-05-23T03:46:24.065Z,9.71
2019-05-23T03:47:24.058Z,9.58
2019-05-23T03:48:24.050Z,9.69
2019-05-23T03:49:24.027Z,9.68
2019-05-23T03:50:24.034Z,9.66
2019-05-23T03:51:24.006Z,9.64
2019-05-23T03:52:23.997Z,9.61
2019-05-23T03:53:23.996Z,9.69
2019-05-23T03:54:23.979Z,9.72
2019-05-23T03:55:24.059Z,9.75
2019-05-23T03:56:23.946Z,9.68
2019-05-23T03:57:25.828Z,9.71
2019-05-23T03:58:23.926Z,9.74
2019-05-23T03:59:23.944Z,9.65
2019-05-23T04:00:23.908Z,9.65
2019-05-23T04:01:23.899Z,9.60
2019-05-23T04:02:23.891Z,9.66
2019-05-23T04:03:23.887Z,9.54
2019-05-23T04:04:23.914Z,9.54
2019-05-23T04:05:23.872Z,9.47
2019-05-23T04:06:23.840Z,9.50
2019-05-23T04:07:23.833Z,9.64
2019-05-23T04:08:23.824Z,9.61
2019-05-23T04:09:23.811Z,9.50
2019-05-23T04:10:23.819Z,9.47
2019-05-23T04:11:23.785Z,9.54
2019-05-23T04:12:23.905Z,9.47
2019-05-23T04:13:23.801Z,9.51
2019-05-23T04:14:23.753Z,9.58
2019-05-23T04:15:23.748Z,9.50
2019-05-23T04:16:23.735Z,9.47
2019-05-23T04:17:23.729Z,9.51
2019-05-23T04:18:23.716Z,9.57
2019-05-23T04:19:23.716Z,9.57
2019-05-23T04:20:23.689Z,9.54
2019-05-23T04:21:23.685Z,9.56
2019-05-23T04:22:23.677Z,9.54
2019-05-23T04:23:23.657Z,9.58
2019-05-23T04:24:23.640Z,9.57
2019-05-23T04:25:23.630Z,9.50
2019-05-23T04:26:23.627Z,9.51
2019-05-23T04:27:23.609Z,9.47
2019-05-23T04:28:23.625Z,9.57
2019-05-23T04:29:23.650Z,9.58
2019-05-23T04:30:23.575Z,9.51
2019-05-23T04:31:23.563Z,9.60
2019-05-23T04:32:23.558Z,10.26
2019-05-23T04:33:23.540Z,11.09
2019-05-23T04:34:23.536Z,11.67
2019-05-23T04:35:23.538Z,12.05
2019-05-23T04:36:23.613Z,12.50
2019-05-23T04:37:23.499Z,12.96
2019-05-23T04:38:23.515Z,13.57
2019-05-23T04:39:23.507Z,14.06
2019-05-23T04:40:23.480Z,14.68
2019-05-23T04:41:23.479Z,15.27
2019-05-23T04:42:23.442Z,15.72
2019-05-23T04:43:23.441Z,16.04
2019-05-23T04:44:23.428Z,16.58
2019-05-23T04:45:23.407Z,16.88
2019-05-23T04:46:23.389Z,17.01
2019-05-23T04:47:23.406Z,17.22
2019-05-23T04:48:23.396Z,17.48
2019-05-23T04:49:23.369Z,17.64
2019-05-23T04:50:23.353Z,17.79
2019-05-23T04:51:23.349Z,17.93
2019-05-23T04:52:23.329Z,18.17
2019-05-23T04:53:23.327Z,18.10
2019-05-23T04:54:23.325Z,18.20
2019-05-23T04:55:23.305Z,18.33
2019-05-23T04:56:23.285Z,18.48
2019-05-23T04:57:23.356Z,18.58
2019-05-23T04:58:23.263Z,18.84
2019-05-23T04:59:23.259Z,18.95
2019-05-23T05:00:23.256Z,19.16
2019-05-23T05:01:23.229Z,19.23
2019-05-23T05:02:26.736Z,19.26
2019-05-23T05:03:23.225Z,18.92
2019-05-23T05:04:23.230Z,18.47
2019-05-23T05:05:23.201Z,18.36
2019-05-23T05:06:23.174Z,18.44
2019-05-23T05:07:23.171Z,18.41
2019-05-23T05:08:23.165Z,18.65
2019-05-23T05:09:23.161Z,18.81
2019-05-23T05:10:23.137Z,18.95
2019-05-23T05:11:23.120Z,19.23
2019-05-23T05:12:23.124Z,19.58
2019-05-23T05:13:23.091Z,19.83
2019-05-23T05:14:23.085Z,19.80
2019-05-23T05:15:23.091Z,19.71
2019-05-23T05:16:23.064Z,19.78
2019-05-23T05:17:23.118Z,19.78
2019-05-23T05:18:23.036Z,19.88
2019-05-23T05:19:23.050Z,19.73
2019-05-23T05:20:23.968Z,19.81
2019-05-23T05:21:23.010Z,19.55
2019-05-23T05:22:22.993Z,19.56
2019-05-23T05:23:22.989Z,19.91
2019-05-23T05:24:22.975Z,20.16
2019-05-23T05:25:22.962Z,20.43
2019-05-23T05:26:22.953Z,20.74
2019-05-23T05:27:22.939Z,21.04
2019-05-23T05:28:22.926Z,21.17
2019-05-23T05:29:22.914Z,21.27
2019-05-23T05:30:22.910Z,21.52
2019-05-23T05:31:22.936Z,21.59
2019-05-23T05:32:22.902Z,21.52
2019-05-23T05:33:22.874Z,21.19
2019-05-23T05:34:22.889Z,21.04
2019-05-23T05:35:22.943Z,20.38
2019-05-23T05:36:22.835Z,19.65
2019-05-23T05:37:22.930Z,18.94
2019-05-23T05:38:22.809Z,18.42
2019-05-23T05:39:22.797Z,18.05
2019-05-23T05:40:22.789Z,17.22
2019-05-23T05:41:22.820Z,16.67
2019-05-23T05:42:22.791Z,16.21
2019-05-23T05:43:22.758Z,15.76
2019-05-23T05:44:22.754Z,15.41
2019-05-23T05:45:22.735Z,15.10
2019-05-23T05:46:22.732Z,14.69
2019-05-23T05:47:22.717Z,14.65
2019-05-23T05:48:22.723Z,14.51
2019-05-23T05:49:22.701Z,14.50
2019-05-23T05:50:22.673Z,14.42
2019-05-23T05:51:22.667Z,14.29
2019-05-23T05:52:22.654Z,14.24
2019-05-23T05:53:22.640Z,14.02
2019-05-23T05:54:22.651Z,14.06
2019-05-23T05:55:22.641Z,13.95
2019-05-23T05:56:22.620Z,13.85
2019-05-23T05:57:22.654Z,13.79
2019-05-23T05:58:22.691Z,13.75
2019-05-23T05:59:22.589Z,13.75
2019-05-23T06:00:22.575Z,13.66
2019-05-23T06:01:33.460Z,13.57
2019-05-23T06:02:23.591Z,13.45
2019-05-23T06:03:22.561Z,13.45
2019-05-23T06:04:22.522Z,13.42
2019-05-23T06:05:22.512Z,13.42
2019-05-23T06:06:22.498Z,13.33
2019-05-23T06:07:22.503Z,13.33
2019-05-23T06:08:22.488Z,13.41
2019-05-23T06:09:22.457Z,13.41
2019-05-23T06:10:22.445Z,13.39
2019-05-23T06:11:22.442Z,13.41
2019-05-23T06:12:22.435Z,13.32
2019-05-23T06:13:22.433Z,13.39
2019-05-23T06:14:22.405Z,13.33
2019-05-23T06:15:22.393Z,13.45
2019-05-23T06:16:22.394Z,13.41
2019-05-23T06:17:22.371Z,13.46
2019-05-23T06:18:22.366Z,13.46
2019-05-23T06:19:22.351Z,13.44
2019-05-23T06:20:22.337Z,13.42
2019-05-23T06:21:22.346Z,13.48
2019-05-23T06:22:22.314Z,13.44
2019-05-23T06:23:22.317Z,13.46
2019-05-23T06:24:38.934Z,13.42
2019-05-23T06:25:23.290Z,13.45
2019-05-23T06:26:22.298Z,13.46
2019-05-23T06:27:22.257Z,13.46
2019-05-23T06:28:22.307Z,13.45
2019-05-23T06:29:22.703Z,13.39
2019-05-23T06:30:22.226Z,13.44
2019-05-23T06:31:22.235Z,13.44
2019-05-23T06:32:22.225Z,13.44
2019-05-23T06:33:24.066Z,13.44
2019-05-23T06:34:22.296Z,13.39
2019-05-23T06:35:22.179Z,13.36
2019-05-23T06:36:22.160Z,13.28
2019-05-23T06:37:22.322Z,13.23
2019-05-23T06:38:22.163Z,13.25
2019-05-23T06:39:22.130Z,13.11
2019-05-23T06:40:22.129Z,13.11
2019-05-23T06:41:22.135Z,13.07
2019-05-23T06:42:22.094Z,13.00
2019-05-23T06:43:22.093Z,13.07
2019-05-23T06:44:22.072Z,13.01
2019-05-23T06:45:22.057Z,13.00
2019-05-23T06:46:22.070Z,13.10
2019-05-23T06:47:22.047Z,13.12
2019-05-23T06:48:22.023Z,13.11
2019-05-23T06:49:22.014Z,13.04
2019-05-23T06:50:22.008Z,13.12
2019-05-23T06:51:22.025Z,13.17
2019-05-23T06:52:21.990Z,13.20
2019-05-23T06:53:22.001Z,13.23
2019-05-23T06:54:21.970Z,13.10
2019-05-23T06:55:21.946Z,13.10
2019-05-23T06:56:21.937Z,13.14
2019-05-23T06:57:21.931Z,13.08
2019-05-23T06:58:22.852Z,13.14
2019-05-23T06:59:21.924Z,13.14
2019-05-23T07:00:21.891Z,13.22
2019-05-23T07:01:21.890Z,13.19
2019-05-23T07:02:21.870Z,13.15
2019-05-23T07:03:21.872Z,13.08
2019-05-23T07:04:21.850Z,13.03
2019-05-23T07:05:21.882Z,13.05
2019-05-23T07:06:21.851Z,13.01
2019-05-23T07:07:21.812Z,12.95
2019-05-23T07:08:25.178Z,13.00
2019-05-23T07:09:21.799Z,13.00
2019-05-23T07:10:21.795Z,13.01
2019-05-23T07:11:21.780Z,13.11
2019-05-23T07:12:21.761Z,13.04
2019-05-23T07:13:21.747Z,13.05
2019-05-23T07:14:21.756Z,13.12
2019-05-23T07:15:21.729Z,13.22
2019-05-23T07:16:21.710Z,13.14
2019-05-23T07:17:21.723Z,13.20
2019-05-23T07:18:21.700Z,13.25
2019-05-23T07:19:21.676Z,13.22
2019-05-23T07:20:21.675Z,13.36
2019-05-23T07:21:21.661Z,13.39
2019-05-23T07:22:21.648Z,13.36
2019-05-23T07:23:21.661Z,13.36
2019-05-23T07:24:21.625Z,13.32
2019-05-23T07:25:21.638Z,13.30
2019-05-23T07:26:21.605Z,13.45
2019-05-23T07:27:21.600Z,13.45
2019-05-23T07:28:21.586Z,13.54
2019-05-23T07:29:21.572Z,13.57
2019-05-23T07:30:21.583Z,13.54
2019-05-23T07:31:21.563Z,13.60
2019-05-23T07:32:21.543Z,13.55
2019-05-23T07:33:21.543Z,13.69
2019-05-23T07:34:21.519Z,13.75
2019-05-23T07:35:21.510Z,13.77
2019-05-23T07:36:21.503Z,13.82
2019-05-23T07:37:21.479Z,13.81
2019-05-23T07:38:21.493Z,13.81
2019-05-23T07:39:21.458Z,13.78
2019-05-23T07:40:21.455Z,13.95
2019-05-23T07:41:21.536Z,14.04
2019-05-23T07:42:21.425Z,14.10
2019-05-23T07:43:21.546Z,14.20
2019-05-23T07:44:21.427Z,14.29
2019-05-23T07:45:21.561Z,14.51
2019-05-23T07:46:21.382Z,14.52
2019-05-23T07:47:21.374Z,14.55
2019-05-23T07:48:21.380Z,14.72
2019-05-23T07:49:21.348Z,14.70
2019-05-23T07:50:21.373Z,14.81
2019-05-23T07:51:21.343Z,14.92
2019-05-23T07:52:21.311Z,15.03
2019-05-23T07:53:21.301Z,15.01
2019-05-23T07:54:21.296Z,15.13
2019-05-23T07:55:21.281Z,15.21
2019-05-23T07:56:21.290Z,15.25
2019-05-23T07:57:21.252Z,15.21
2019-05-23T07:58:21.262Z,15.19
2019-05-23T07:59:21.236Z,15.20
2019-05-23T08:00:21.228Z,15.17
2019-05-23T08:01:21.212Z,15.13
2019-05-23T08:02:25.521Z,15.09
2019-05-23T08:03:21.223Z,14.98
2019-05-23T08:04:22.465Z,15.02
2019-05-23T08:05:21.173Z,15.03
2019-05-23T08:06:21.166Z,15.11
2019-05-23T08:07:21.142Z,15.06
2019-05-23T08:08:21.126Z,15.06
2019-05-23T08:09:21.145Z,15.02
2019-05-23T08:10:33.158Z,15.02
2019-05-23T08:11:22.096Z,15.03
2019-05-23T08:12:21.085Z,15.06
2019-05-23T08:13:21.084Z,15.07
2019-05-23T08:14:21.066Z,15.11
2019-05-23T08:15:21.051Z,15.06
2019-05-23T08:16:21.050Z,14.98
2019-05-23T08:17:21.047Z,14.92
2019-05-23T08:18:21.080Z,14.96
2019-05-23T08:19:21.017Z,14.98
2019-05-23T08:20:20.987Z,14.91
2019-05-23T08:21:20.992Z,15.02
2019-05-23T08:22:20.967Z,15.07
2019-05-23T08:23:20.958Z,15.06
2019-05-23T08:24:20.952Z,15.11
2019-05-23T08:25:20.944Z,15.11
2019-05-23T08:26:20.945Z,15.13
2019-05-23T08:27:20.912Z,15.16
2019-05-23T08:28:20.906Z,15.10
2019-05-23T08:29:27.991Z,14.92
2019-05-23T08:30:21.879Z,15.01
2019-05-23T08:31:20.864Z,14.88
2019-05-23T08:32:20.858Z,14.80
2019-05-23T08:33:20.849Z,14.78
2019-05-23T08:34:37.846Z,14.88
2019-05-23T08:35:21.827Z,14.83
2019-05-23T08:36:20.818Z,14.77
2019-05-23T08:37:20.802Z,14.81
2019-05-23T08:38:20.788Z,14.91
2019-05-23T08:39:20.781Z,14.95
2019-05-23T08:40:20.768Z,14.84
2019-05-23T08:41:20.771Z,14.99
2019-05-23T08:42:20.740Z,14.99
2019-05-23T08:43:20.735Z,15.01
2019-05-23T08:44:20.734Z,15.13
2019-05-23T08:45:20.705Z,15.11
2019-05-23T08:46:20.700Z,15.11
2019-05-23T08:47:20.690Z,15.14
2019-05-23T08:48:20.694Z,15.25
2019-05-23T08:49:20.678Z,15.27
2019-05-23T08:50:20.678Z,15.32
2019-05-23T08:51:20.662Z,15.44
2019-05-23T08:52:20.639Z,15.56
2019-05-23T08:53:20.613Z,15.59
2019-05-23T08:54:20.606Z,15.62
2019-05-23T08:55:20.611Z,15.65
2019-05-23T08:56:20.583Z,15.59
2019-05-23T08:57:20.598Z,15.62
2019-05-23T08:58:20.583Z,15.72
2019-05-23T08:59:20.549Z,15.68
2019-05-23T09:00:20.597Z,15.67
2019-05-23T09:01:20.537Z,15.65
2019-05-23T09:02:20.511Z,15.65
2019-05-23T09:03:20.497Z,15.59
2019-05-23T09:04:20.511Z,15.71
2019-05-23T09:05:20.495Z,15.69
2019-05-23T09:06:20.471Z,15.80
2019-05-23T09:07:20.501Z,15.86
2019-05-23T09:08:20.448Z,15.96
2019-05-23T09:09:29.738Z,15.94
2019-05-23T09:10:21.426Z,15.93
2019-05-23T09:11:20.411Z,15.94
2019-05-23T09:12:20.407Z,15.97
2019-05-23T09:13:20.409Z,15.94
2019-05-23T09:14:20.394Z,16.01
2019-05-23T09:15:20.377Z,16.02
2019-05-23T09:16:20.351Z,16.14
2019-05-23T09:17:20.344Z,16.09
2019-05-23T09:18:20.337Z,16.12
2019-05-23T09:19:20.351Z,16.20
2019-05-23T09:20:20.305Z,16.17
2019-05-23T09:21:20.300Z,16.17
2019-05-23T09:22:20.289Z,16.12
2019-05-23T09:23:20.291Z,16.05
2019-05-23T09:24:20.264Z,16.23
2019-05-23T09:25:20.248Z,16.27
2019-05-23T09:26:20.241Z,16.24
2019-05-23T09:27:20.231Z,16.23
2019-05-23T09:28:20.217Z,16.25
2019-05-23T09:29:20.249Z,16.20
2019-05-23T09:30:20.197Z,16.30
2019-05-23T09:31:20.178Z,16.33
2019-05-23T09:32:20.184Z,16.34
2019-05-23T09:33:20.170Z,16.23
2019-05-23T09:34:20.149Z,16.11
2019-05-23T09:35:22.178Z,16.09
2019-05-23T09:36:20.126Z,16.15
2019-05-23T09:37:20.161Z,16.25
2019-05-23T09:38:20.116Z,16.25
2019-05-23T09:39:20.115Z,16.23
2019-05-23T09:40:20.100Z,16.25
2019-05-23T09:41:20.069Z,16.27
2019-05-23T09:42:20.057Z,16.33
2019-05-23T09:43:20.047Z,16.33
2019-05-23T09:44:20.053Z,16.30
2019-05-23T09:45:20.026Z,16.25
2019-05-23T09:46:20.013Z,16.33
2019-05-23T09:47:20.113Z,16.33
2019-05-23T09:48:19.987Z,16.33
2019-05-23T09:49:19.982Z,16.41
2019-05-23T09:50:20.010Z,16.28
2019-05-23T09:51:19.982Z,16.34
2019-05-23T09:52:19.943Z,16.24
2019-05-23T09:53:19.933Z,16.35
2019-05-23T09:54:19.920Z,16.45
2019-05-23T09:55:19.914Z,16.38
2019-05-23T09:56:19.896Z,16.38
2019-05-23T09:57:19.921Z,16.42
2019-05-23T09:58:19.872Z,16.34
2019-05-23T09:59:19.865Z,16.31
2019-05-23T10:00:19.853Z,16.17
2019-05-23T10:01:19.968Z,16.27
2019-05-23T10:02:19.852Z,16.27
2019-05-23T10:03:19.817Z,16.34
2019-05-23T10:04:19.835Z,16.45
2019-05-23T10:05:40.194Z,16.41
2019-05-23T10:06:20.783Z,16.41
2019-05-23T10:07:19.780Z,16.52
2019-05-23T10:08:19.764Z,16.60
2019-05-23T10:09:19.756Z,16.57
2019-05-23T10:10:19.734Z,16.60
2019-05-23T10:11:19.729Z,16.66
2019-05-23T10:12:22.446Z,16.66
2019-05-23T10:13:36.048Z,16.67
2019-05-23T10:14:20.703Z,16.71
2019-05-23T10:15:19.684Z,16.63
2019-05-23T10:16:19.664Z,16.58
2019-05-23T10:17:19.686Z,16.71
2019-05-23T10:18:19.655Z,16.76
2019-05-23T10:19:19.634Z,16.82
2019-05-23T10:20:19.623Z,16.86
2019-05-23T10:21:19.615Z,16.81
2019-05-23T10:22:19.599Z,16.88
2019-05-23T10:23:19.597Z,16.93
2019-05-23T10:24:19.628Z,17.04
2019-05-23T10:25:19.599Z,17.06
2019-05-23T10:26:19.557Z,17.01
2019-05-23T10:27:19.546Z,17.07
2019-05-23T10:28:19.532Z,17.11
2019-05-23T10:29:19.523Z,17.14
2019-05-23T10:30:19.509Z,17.21
2019-05-23T10:31:19.495Z,17.15
2019-05-23T10:32:19.504Z,17.21
2019-05-23T10:33:19.499Z,17.26
2019-05-23T10:34:19.467Z,17.25
2019-05-23T10:35:19.468Z,17.34
2019-05-23T10:36:19.459Z,17.43
2019-05-23T10:37:19.519Z,17.37
2019-05-23T10:38:19.423Z,17.41
2019-05-23T10:39:19.409Z,17.40
2019-05-23T10:40:19.417Z,17.41
2019-05-23T10:41:19.398Z,17.23
2019-05-23T10:42:19.378Z,17.26
2019-05-23T10:43:19.362Z,17.26
2019-05-23T10:44:19.364Z,17.38
2019-05-23T10:45:19.337Z,17.30
2019-05-23T10:46:19.360Z,17.30
2019-05-23T10:47:19.315Z,17.21
2019-05-23T10:48:19.325Z,17.28
2019-05-23T10:49:19.300Z,17.22
2019-05-23T10:50:19.285Z,17.25
2019-05-23T10:51:19.293Z,17.18
2019-05-23T10:52:19.271Z,17.23
2019-05-23T10:53:19.306Z,17.23
2019-05-23T10:54:19.303Z,17.25
2019-05-23T10:55:19.254Z,17.25
2019-05-23T10:56:20.580Z,17.30
2019-05-23T10:57:19.204Z,17.48
2019-05-23T10:58:19.236Z,17.49
2019-05-23T10:59:19.226Z,17.51
2019-05-23T11:00:19.173Z,17.48
2019-05-23T11:01:19.160Z,17.52
2019-05-23T11:02:19.154Z,17.66
2019-05-23T11:03:19.185Z,17.56
2019-05-23T11:04:19.130Z,17.55
2019-05-23T11:05:19.120Z,17.55
2019-05-23T11:06:19.105Z,17.63
2019-05-23T11:07:19.094Z,17.66
2019-05-23T11:08:19.094Z,17.66
2019-05-23T11:09:36.193Z,17.64
2019-05-23T11:10:20.065Z,17.66
2019-05-23T11:11:19.072Z,17.64
2019-05-23T11:12:19.036Z,17.79
2019-05-23T11:13:19.034Z,17.77
2019-05-23T11:14:19.025Z,17.78
2019-05-23T11:15:19.026Z,17.87
2019-05-23T11:16:18.997Z,17.95
2019-05-23T11:17:18.975Z,18.05
2019-05-23T11:18:18.988Z,18.18
2019-05-23T11:19:18.958Z,18.10
2019-05-23T11:20:18.952Z,18.21
2019-05-23T11:21:18.946Z,18.17
2019-05-23T11:22:18.922Z,18.25
2019-05-23T11:23:18.937Z,18.29
2019-05-23T11:24:18.899Z,18.32
2019-05-23T11:25:18.905Z,18.33
2019-05-23T11:26:18.888Z,18.35
2019-05-23T11:27:18.874Z,18.45
2019-05-23T11:28:18.856Z,18.51
2019-05-23T11:29:18.868Z,18.48
2019-05-23T11:30:18.841Z,18.42
2019-05-23T11:31:18.857Z,18.33
2019-05-23T11:32:20.171Z,18.33
2019-05-23T11:33:18.805Z,18.35
2019-05-23T11:34:18.811Z,18.27
2019-05-23T11:35:18.817Z,18.42
2019-05-23T11:36:33.914Z,18.30
2019-05-23T11:37:19.754Z,18.45
2019-05-23T11:38:18.747Z,18.42
2019-05-23T11:39:18.726Z,18.41
2019-05-23T11:40:18.720Z,18.44
2019-05-23T11:41:18.764Z,18.42
2019-05-23T11:42:18.720Z,18.48
2019-05-23T11:43:18.702Z,18.41
2019-05-23T11:44:18.677Z,18.48
2019-05-23T11:45:18.668Z,18.57
2019-05-23T11:46:18.654Z,18.58
2019-05-23T11:47:18.644Z,18.57
2019-05-23T11:48:18.640Z,18.52
2019-05-23T11:49:18.642Z,18.60
2019-05-23T11:50:18.609Z,18.62
2019-05-23T11:51:18.603Z,18.62
2019-05-23T11:52:18.590Z,18.55
2019-05-23T11:53:18.607Z,18.48
2019-05-23T11:54:18.562Z,18.44
2019-05-23T11:55:18.556Z,18.44
2019-05-23T11:56:18.549Z,18.37
2019-05-23T11:57:18.562Z,18.45
2019-05-23T11:58:18.524Z,18.41
2019-05-23T11:59:18.653Z,18.41
2019-05-23T12:00:18.787Z,18.35
2019-05-23T12:01:21.311Z,18.39
2019-05-23T12:02:18.480Z,18.35
2019-05-23T12:03:18.487Z,18.42
2019-05-23T12:04:18.452Z,18.32
2019-05-23T12:05:18.444Z,18.42
2019-05-23T12:06:18.487Z,18.33
2019-05-23T12:07:18.417Z,18.27
2019-05-23T12:08:18.405Z,18.33
2019-05-23T12:09:18.490Z,18.42
2019-05-23T12:10:18.441Z,18.29
2019-05-23T12:11:18.369Z,18.29
2019-05-23T12:12:18.367Z,18.25
2019-05-23T12:13:18.351Z,18.39
2019-05-23T12:14:18.341Z,18.30
2019-05-23T12:15:18.332Z,18.27
2019-05-23T12:16:18.334Z,18.39
2019-05-23T12:17:18.311Z,18.27
2019-05-23T12:18:18.299Z,18.21
2019-05-23T12:19:18.297Z,18.12
2019-05-23T12:20:18.271Z,18.21
2019-05-23T12:21:18.274Z,18.29
2019-05-23T12:22:18.250Z,18.27
2019-05-23T12:23:18.236Z,18.27
2019-05-23T12:24:18.232Z,18.30
2019-05-23T12:25:22.578Z,18.29
2019-05-23T12:26:18.212Z,18.33
2019-05-23T12:27:18.200Z,18.30
2019-05-23T12:28:18.215Z,18.39
2019-05-23T12:29:18.172Z,18.45
2019-05-23T12:30:18.158Z,18.48
2019-05-23T12:31:18.141Z,18.52
2019-05-23T12:32:18.141Z,18.58
2019-05-23T12:33:18.139Z,18.45
2019-05-23T12:34:18.124Z,18.33
2019-05-23T12:35:18.099Z,18.25
2019-05-23T12:36:18.094Z,18.11
2019-05-23T12:37:20.143Z,18.07
2019-05-23T12:38:18.096Z,18.20
2019-05-23T12:39:18.389Z,18.21
2019-05-23T12:40:18.042Z,18.21
2019-05-23T12:41:18.045Z,18.20
2019-05-23T12:42:18.022Z,18.10
2019-05-23T12:43:18.010Z,18.14
2019-05-23T12:44:18.278Z,18.10
2019-05-23T12:45:17.982Z,18.10
2019-05-23T12:46:17.980Z,17.92
2019-05-23T12:47:18.023Z,17.87
2019-05-23T12:48:17.966Z,17.93
2019-05-23T12:49:17.968Z,17.89
2019-05-23T12:50:17.928Z,17.78
2019-05-23T12:51:17.918Z,17.77
2019-05-23T12:52:17.911Z,17.86
2019-05-23T12:53:17.950Z,17.81
2019-05-23T12:54:17.901Z,17.84
2019-05-23T12:55:17.871Z,17.75